sensor_id;sensor_type;location;lat;lon;timestamp;pressure;altitude;pressure_sealevel;temperature;humidity
54308;BME280;40208;39.778;2.710;2023-06-26T00:02:28;101629.63;;;24.04;100.00
54308;BME280;40208;39.778;2.710;2023-06-26T00:05:17;101632.09;;;23.86;100.00
54308;BME280;40208;39.778;2.710;2023-06-26T00:08:02;101443.22;;;22.73;100.00
54308;BME280;40208;39.778;2.710;2023-06-26T00:10:46;101437.13;;;22.60;100.00
54308;BME280;40208;39.778;2.710;2023-06-26T00:13:31;101360.19;;;21.99;100.00
54308;BME280;40208;39.778;2.710;2023-06-26T00:16:16;101568.38;;;23.40;100.00
54308;BME280;40208;39.778;2.710;2023-06-26T00:19:01;101560.03;;;23.32;100.00
54308;BME280;40208;39.778;2.710;2023-06-26T00:21:46;101579.09;;;23.51;100.00
54308;BME280;40208;39.778;2.710;2023-06-26T00:24:32;101518.28;;;23.13;100.00
54308;BME280;40208;39.778;2.710;2023-06-26T00:27:17;101513.41;;;23.07;100.00
54308;BME280;40208;39.778;2.710;2023-06-26T00:30:02;101482.88;;;22.84;100.00
54308;BME280;40208;39.778;2.710;2023-06-26T00:32:47;101534.00;;;22.98;100.00
54308;BME280;40208;39.778;2.710;2023-06-26T00:35:32;101576.41;;;23.30;100.00
54308;BME280;40208;39.778;2.710;2023-06-26T00:38:17;101452.75;;;22.56;100.00
54308;BME280;40208;39.778;2.710;2023-06-26T00:41:01;101604.28;;;23.42;100.00
54308;BME280;40208;39.778;2.710;2023-06-26T00:43:46;101422.69;;;22.50;100.00
54308;BME280;40208;39.778;2.710;2023-06-26T00:46:32;101419.16;;;22.59;100.00
54308;BME280;40208;39.778;2.710;2023-06-26T00:49:17;101542.13;;;23.19;100.00
54308;BME280;40208;39.778;2.710;2023-06-26T00:52:02;101580.16;;;23.39;100.00
54308;BME280;40208;39.778;2.710;2023-06-26T00:54:48;101371.59;;;22.03;100.00
54308;BME280;40208;39.778;2.710;2023-06-26T00:57:33;101511.34;;;22.78;100.00
54308;BME280;40208;39.778;2.710;2023-06-26T01:00:18;101422.78;;;22.16;100.00
54308;BME280;40208;39.778;2.710;2023-06-26T01:03:02;101578.13;;;23.10;100.00
54308;BME280;40208;39.778;2.710;2023-06-26T01:05:49;101454.50;;;22.25;100.00
54308;BME280;40208;39.778;2.710;2023-06-26T01:08:34;101582.63;;;23.21;100.00
54308;BME280;40208;39.778;2.710;2023-06-26T01:11:19;101466.91;;;22.60;100.00
54308;BME280;40208;39.778;2.710;2023-06-26T01:14:04;101538.53;;;23.09;100.00
54308;BME280;40208;39.778;2.710;2023-06-26T01:16:49;101558.84;;;23.24;100.00
54308;BME280;40208;39.778;2.710;2023-06-26T01:19:36;101582.16;;;23.37;100.00
54308;BME280;40208;39.778;2.710;2023-06-26T01:25:46;101577.06;;;23.43;100.00
54308;BME280;40208;39.778;2.710;2023-06-26T01:28:38;101536.72;;;23.19;100.00
54308;BME280;40208;39.778;2.710;2023-06-26T01:31:24;101617.41;;;23.67;100.00
54308;BME280;40208;39.778;2.710;2023-06-26T01:34:09;101460.16;;;22.75;100.00
54308;BME280;40208;39.778;2.710;2023-06-26T01:36:54;101533.41;;;23.16;100.00
54308;BME280;40208;39.778;2.710;2023-06-26T01:39:38;101575.09;;;23.45;100.00
54308;BME280;40208;39.778;2.710;2023-06-26T01:42:24;101546.34;;;23.33;100.00
54308;BME280;40208;39.778;2.710;2023-06-26T01:45:21;101536.78;;;23.29;100.00
54308;BME280;40208;39.778;2.710;2023-06-26T01:48:08;101553.47;;;23.34;100.00
54308;BME280;40208;39.778;2.710;2023-06-26T01:50:58;101551.97;;;23.20;100.00
54308;BME280;40208;39.778;2.710;2023-06-26T01:53:47;101626.50;;;23.57;100.00
54308;BME280;40208;39.778;2.710;2023-06-26T01:56:38;101467.34;;;22.65;100.00
54308;BME280;40208;39.778;2.710;2023-06-26T01:59:25;101267.69;;;21.43;100.00
54308;BME280;40208;39.778;2.710;2023-06-26T02:02:12;101470.28;;;22.73;100.00
54308;BME280;40208;39.778;2.710;2023-06-26T02:04:57;101519.56;;;23.09;100.00
54308;BME280;40208;39.778;2.710;2023-06-26T02:07:42;101524.44;;;23.15;100.00
54308;BME280;40208;39.778;2.710;2023-06-26T02:10:28;101506.53;;;23.03;100.00
54308;BME280;40208;39.778;2.710;2023-06-26T02:13:12;101603.28;;;23.64;100.00
54308;BME280;40208;39.778;2.710;2023-06-26T02:15:57;101364.81;;;22.09;100.00
54308;BME280;40208;39.778;2.710;2023-06-26T02:18:42;101591.22;;;23.47;100.00
54308;BME280;40208;39.778;2.710;2023-06-26T02:21:27;101583.34;;;23.44;100.00
54308;BME280;40208;39.778;2.710;2023-06-26T02:24:12;101589.16;;;23.39;100.00
54308;BME280;40208;39.778;2.710;2023-06-26T02:26:57;101607.31;;;23.48;100.00
54308;BME280;40208;39.778;2.710;2023-06-26T02:29:41;101486.97;;;22.78;100.00
54308;BME280;40208;39.778;2.710;2023-06-26T02:32:26;101605.63;;;23.47;100.00
54308;BME280;40208;39.778;2.710;2023-06-26T02:35:11;101498.00;;;22.86;100.00
54308;BME280;40208;39.778;2.710;2023-06-26T02:37:56;101548.63;;;23.07;100.00
54308;BME280;40208;39.778;2.710;2023-06-26T02:40:41;101535.38;;;22.93;100.00
54308;BME280;40208;39.778;2.710;2023-06-26T02:43:26;101597.44;;;23.17;100.00
54308;BME280;40208;39.778;2.710;2023-06-26T02:46:10;101381.16;;;21.75;100.00
54308;BME280;40208;39.778;2.710;2023-06-26T02:48:55;101515.78;;;22.68;100.00
54308;BME280;40208;39.778;2.710;2023-06-26T02:51:40;101542.75;;;22.91;100.00
54308;BME280;40208;39.778;2.710;2023-06-26T02:54:25;101516.06;;;22.65;100.00
54308;BME280;40208;39.778;2.710;2023-06-26T02:57:10;101594.25;;;23.12;100.00
54308;BME280;40208;39.778;2.710;2023-06-26T02:59:55;101545.84;;;22.86;100.00
54308;BME280;40208;39.778;2.710;2023-06-26T03:02:40;101551.63;;;22.93;100.00
54308;BME280;40208;39.778;2.710;2023-06-26T03:05:25;101439.94;;;22.37;100.00
54308;BME280;40208;39.778;2.710;2023-06-26T03:08:09;101576.63;;;23.17;100.00
54308;BME280;40208;39.778;2.710;2023-06-26T03:10:54;101491.66;;;22.76;100.00
54308;BME280;40208;39.778;2.710;2023-06-26T03:13:39;101380.41;;;22.16;100.00
54308;BME280;40208;39.778;2.710;2023-06-26T03:16:24;101559.25;;;23.20;100.00
54308;BME280;40208;39.778;2.710;2023-06-26T03:19:09;101569.16;;;23.31;100.00
54308;BME280;40208;39.778;2.710;2023-06-26T03:21:53;101449.47;;;22.53;100.00
54308;BME280;40208;39.778;2.710;2023-06-26T03:24:39;101430.25;;;22.35;100.00
54308;BME280;40208;39.778;2.710;2023-06-26T03:27:24;101575.38;;;23.21;100.00
54308;BME280;40208;39.778;2.710;2023-06-26T03:30:09;101563.19;;;23.16;100.00
54308;BME280;40208;39.778;2.710;2023-06-26T03:32:54;101579.53;;;23.25;100.00
54308;BME280;40208;39.778;2.710;2023-06-26T03:35:39;101406.09;;;22.22;100.00
54308;BME280;40208;39.778;2.710;2023-06-26T03:38:24;101309.44;;;21.71;100.00
54308;BME280;40208;39.778;2.710;2023-06-26T03:41:10;101467.34;;;22.65;100.00
54308;BME280;40208;39.778;2.710;2023-06-26T03:43:55;101451.16;;;22.54;100.00
54308;BME280;40208;39.778;2.710;2023-06-26T03:46:40;101464.06;;;22.61;100.00
54308;BME280;40208;39.778;2.710;2023-06-26T03:49:25;101350.09;;;22.01;100.00
54308;BME280;40208;39.778;2.710;2023-06-26T03:52:10;101465.38;;;22.67;100.00
54308;BME280;40208;39.778;2.710;2023-06-26T03:54:55;101477.13;;;22.77;100.00
54308;BME280;40208;39.778;2.710;2023-06-26T03:57:40;101424.19;;;22.42;100.00
54308;BME280;40208;39.778;2.710;2023-06-26T04:00:24;101348.06;;;21.94;100.00
54308;BME280;40208;39.778;2.710;2023-06-26T04:03:09;101481.34;;;22.70;100.00
54308;BME280;40208;39.778;2.710;2023-06-26T04:05:55;101523.69;;;22.92;100.00
54308;BME280;40208;39.778;2.710;2023-06-26T04:08:40;101464.19;;;22.60;100.00
54308;BME280;40208;39.778;2.710;2023-06-26T04:11:25;101436.91;;;22.31;100.00
54308;BME280;40208;39.778;2.710;2023-06-26T04:14:10;101445.84;;;22.42;100.00
54308;BME280;40208;39.778;2.710;2023-06-26T04:16:55;101480.44;;;22.60;100.00
54308;BME280;40208;39.778;2.710;2023-06-26T04:19:40;101331.38;;;21.89;100.00
54308;BME280;40208;39.778;2.710;2023-06-26T04:22:24;101323.31;;;21.77;100.00
54308;BME280;40208;39.778;2.710;2023-06-26T04:25:10;101432.03;;;22.46;100.00
54308;BME280;40208;39.778;2.710;2023-06-26T04:27:56;101413.19;;;22.23;100.00
54308;BME280;40208;39.778;2.710;2023-06-26T04:30:41;101374.69;;;21.98;100.00
54308;BME280;40208;39.778;2.710;2023-06-26T04:33:26;101482.84;;;22.63;100.00
54308;BME280;40208;39.778;2.710;2023-06-26T04:36:11;101422.50;;;22.30;100.00
54308;BME280;40208;39.778;2.710;2023-06-26T04:38:56;101451.06;;;22.55;100.00
54308;BME280;40208;39.778;2.710;2023-06-26T04:41:40;101430.13;;;22.36;100.00
54308;BME280;40208;39.778;2.710;2023-06-26T04:44:25;101387.16;;;22.22;100.00
54308;BME280;40208;39.778;2.710;2023-06-26T04:47:10;101316.31;;;21.75;100.00
54308;BME280;40208;39.778;2.710;2023-06-26T04:49:55;101460.81;;;22.68;100.00
54308;BME280;40208;39.778;2.710;2023-06-26T04:52:40;101420.69;;;22.52;100.00
54308;BME280;40208;39.778;2.710;2023-06-26T04:55:25;101325.03;;;21.99;100.00
54308;BME280;40208;39.778;2.710;2023-06-26T04:58:10;101165.31;;;21.07;100.00
54308;BME280;40208;39.778;2.710;2023-06-26T05:00:55;101340.03;;;22.03;100.00
54308;BME280;40208;39.778;2.710;2023-06-26T05:03:40;101369.50;;;22.07;100.00
54308;BME280;40208;39.778;2.710;2023-06-26T05:06:25;101505.94;;;22.78;100.00
54308;BME280;40208;39.778;2.710;2023-06-26T05:09:10;101495.69;;;22.82;100.00
54308;BME280;40208;39.778;2.710;2023-06-26T05:11:55;101392.56;;;22.22;100.00
54308;BME280;40208;39.778;2.710;2023-06-26T05:14:40;101371.69;;;22.13;100.00
54308;BME280;40208;39.778;2.710;2023-06-26T05:17:25;101431.81;;;22.37;100.00
54308;BME280;40208;39.778;2.710;2023-06-26T05:20:10;101419.50;;;22.12;100.00
54308;BME280;40208;39.778;2.710;2023-06-26T05:22:55;101417.47;;;21.93;100.00
54308;BME280;40208;39.778;2.710;2023-06-26T05:25:40;101519.94;;;22.51;100.00
54308;BME280;40208;39.778;2.710;2023-06-26T05:28:25;101248.09;;;21.07;100.00
54308;BME280;40208;39.778;2.710;2023-06-26T05:31:11;101488.59;;;22.49;100.00
54308;BME280;40208;39.778;2.710;2023-06-26T05:33:57;101481.50;;;22.36;100.00
54308;BME280;40208;39.778;2.710;2023-06-26T05:36:44;101295.81;;;21.29;100.00
54308;BME280;40208;39.778;2.710;2023-06-26T05:39:30;101526.06;;;22.85;100.00
54308;BME280;40208;39.778;2.710;2023-06-26T05:42:15;101410.28;;;22.15;100.00
54308;BME280;40208;39.778;2.710;2023-06-26T05:45:00;101455.38;;;22.47;100.00
54308;BME280;40208;39.778;2.710;2023-06-26T05:47:45;101505.53;;;22.83;100.00
54308;BME280;40208;39.778;2.710;2023-06-26T05:50:31;101516.47;;;22.81;100.00
54308;BME280;40208;39.778;2.710;2023-06-26T05:53:16;101531.66;;;22.94;100.00
54308;BME280;40208;39.778;2.710;2023-06-26T05:56:01;101477.06;;;22.68;100.00
54308;BME280;40208;39.778;2.710;2023-06-26T05:58:46;101547.88;;;23.05;100.00
54308;BME280;40208;39.778;2.710;2023-06-26T06:01:31;101382.50;;;22.13;100.00
54308;BME280;40208;39.778;2.710;2023-06-26T06:04:18;101549.25;;;23.20;100.00
54308;BME280;40208;39.778;2.710;2023-06-26T06:07:03;101546.69;;;23.19;100.00
54308;BME280;40208;39.778;2.710;2023-06-26T06:09:47;101409.06;;;22.40;100.00
54308;BME280;40208;39.778;2.710;2023-06-26T06:12:32;101459.69;;;22.70;100.00
54308;BME280;40208;39.778;2.710;2023-06-26T06:15:17;101453.31;;;22.71;100.00
54308;BME280;40208;39.778;2.710;2023-06-26T06:18:02;101553.94;;;23.39;100.00
54308;BME280;40208;39.778;2.710;2023-06-26T06:20:47;101510.38;;;23.21;100.00
54308;BME280;40208;39.778;2.710;2023-06-26T06:23:32;101420.50;;;22.64;100.00
54308;BME280;40208;39.778;2.710;2023-06-26T06:26:17;101514.59;;;23.14;100.00
54308;BME280;40208;39.778;2.710;2023-06-26T06:29:02;101475.06;;;23.02;100.00
54308;BME280;40208;39.778;2.710;2023-06-26T06:31:48;101458.97;;;22.89;100.00
54308;BME280;40208;39.778;2.710;2023-06-26T06:34:32;101463.94;;;23.05;100.00
54308;BME280;40208;39.778;2.710;2023-06-26T06:37:17;101499.88;;;23.28;100.00
54308;BME280;40208;39.778;2.710;2023-06-26T06:40:02;101304.09;;;22.13;100.00
54308;BME280;40208;39.778;2.710;2023-06-26T06:42:48;101483.13;;;23.23;100.00
54308;BME280;40208;39.778;2.710;2023-06-26T06:45:33;101529.97;;;23.65;100.00
54308;BME280;40208;39.778;2.710;2023-06-26T06:48:19;101507.69;;;23.52;100.00
54308;BME280;40208;39.778;2.710;2023-06-26T06:51:03;101494.69;;;23.56;100.00
54308;BME280;40208;39.778;2.710;2023-06-26T06:53:48;101582.53;;;24.15;100.00
54308;BME280;40208;39.778;2.710;2023-06-26T06:56:34;101473.63;;;23.59;100.00
54308;BME280;40208;39.778;2.710;2023-06-26T06:59:18;101546.72;;;24.11;100.00
54308;BME280;40208;39.778;2.710;2023-06-26T07:02:03;101449.06;;;23.61;100.00
54308;BME280;40208;39.778;2.710;2023-06-26T07:04:48;101523.28;;;24.10;100.00
54308;BME280;40208;39.778;2.710;2023-06-26T07:07:34;101506.72;;;24.03;100.00
54308;BME280;40208;39.778;2.710;2023-06-26T07:10:19;101527.91;;;24.29;100.00
54308;BME280;40208;39.778;2.710;2023-06-26T07:13:03;101548.34;;;24.43;100.00
54308;BME280;40208;39.778;2.710;2023-06-26T07:15:48;101549.94;;;24.55;100.00
54308;BME280;40208;39.778;2.710;2023-06-26T07:18:33;101550.53;;;24.59;100.00
54308;BME280;40208;39.778;2.710;2023-06-26T07:21:18;101570.81;;;24.74;100.00
54308;BME280;40208;39.778;2.710;2023-06-26T07:24:02;101446.06;;;24.04;100.00
54308;BME280;40208;39.778;2.710;2023-06-26T07:26:47;101477.38;;;24.28;100.00
54308;BME280;40208;39.778;2.710;2023-06-26T07:29:32;101553.56;;;24.75;100.00
54308;BME280;40208;39.778;2.710;2023-06-26T07:32:18;101475.78;;;24.35;100.00
54308;BME280;40208;39.778;2.710;2023-06-26T07:35:03;101572.66;;;25.03;100.00
54308;BME280;40208;39.778;2.710;2023-06-26T07:37:48;101558.53;;;24.99;100.00
54308;BME280;40208;39.778;2.710;2023-06-26T07:40:33;101530.69;;;24.87;100.00
54308;BME280;40208;39.778;2.710;2023-06-26T07:43:17;101518.38;;;24.93;100.00
54308;BME280;40208;39.778;2.710;2023-06-26T07:46:02;101438.66;;;24.45;100.00
54308;BME280;40208;39.778;2.710;2023-06-26T07:48:47;101554.38;;;25.24;100.00
54308;BME280;40208;39.778;2.710;2023-06-26T07:51:32;101479.63;;;24.91;100.00
54308;BME280;40208;39.778;2.710;2023-06-26T07:54:17;101573.16;;;25.55;100.00
54308;BME280;40208;39.778;2.710;2023-06-26T07:57:04;101500.88;;;25.15;100.00
54308;BME280;40208;39.778;2.710;2023-06-26T07:59:51;101586.59;;;25.66;100.00
54308;BME280;40208;39.778;2.710;2023-06-26T08:02:36;101507.47;;;25.22;100.00
54308;BME280;40208;39.778;2.710;2023-06-26T08:05:21;101518.06;;;25.25;100.00
54308;BME280;40208;39.778;2.710;2023-06-26T08:08:05;101549.09;;;25.60;100.00
54308;BME280;40208;39.778;2.710;2023-06-26T08:10:51;101544.78;;;25.67;100.00
54308;BME280;40208;39.778;2.710;2023-06-26T08:13:36;101546.78;;;25.75;100.00
54308;BME280;40208;39.778;2.710;2023-06-26T08:16:20;101567.47;;;25.86;100.00
54308;BME280;40208;39.778;2.710;2023-06-26T08:19:05;101568.47;;;25.94;100.00
54308;BME280;40208;39.778;2.710;2023-06-26T08:21:50;101587.81;;;26.19;100.00
54308;BME280;40208;39.778;2.710;2023-06-26T08:24:35;101559.09;;;26.07;100.00
54308;BME280;40208;39.778;2.710;2023-06-26T08:27:21;101585.59;;;26.32;100.00
54308;BME280;40208;39.778;2.710;2023-06-26T08:30:06;101591.19;;;26.31;100.00
54308;BME280;40208;39.778;2.710;2023-06-26T08:32:51;101542.72;;;26.16;100.00
54308;BME280;40208;39.778;2.710;2023-06-26T08:35:36;101601.66;;;26.53;100.00
54308;BME280;40208;39.778;2.710;2023-06-26T08:38:21;101540.38;;;26.21;100.00
54308;BME280;40208;39.778;2.710;2023-06-26T08:41:08;101603.88;;;26.68;100.00
54308;BME280;40208;39.778;2.710;2023-06-26T08:43:53;101462.72;;;25.91;100.00
54308;BME280;40208;39.778;2.710;2023-06-26T08:46:38;101593.84;;;26.68;100.00
54308;BME280;40208;39.778;2.710;2023-06-26T08:49:25;101480.91;;;26.09;100.00
54308;BME280;40208;39.778;2.710;2023-06-26T08:52:17;101483.88;;;26.15;100.00
54308;BME280;40208;39.778;2.710;2023-06-26T08:55:09;101445.50;;;25.91;100.00
54308;BME280;40208;39.778;2.710;2023-06-26T08:57:55;101567.84;;;26.74;100.00
54308;BME280;40208;39.778;2.710;2023-06-26T09:00:41;101607.59;;;27.02;100.00
54308;BME280;40208;39.778;2.710;2023-06-26T09:03:25;101607.69;;;27.11;100.00
54308;BME280;40208;39.778;2.710;2023-06-26T09:06:10;101601.53;;;27.08;100.00
54308;BME280;40208;39.778;2.710;2023-06-26T09:08:55;101613.06;;;27.20;100.00
54308;BME280;40208;39.778;2.710;2023-06-26T09:11:40;101510.22;;;26.60;100.00
54308;BME280;40208;39.778;2.710;2023-06-26T09:14:26;101549.09;;;26.89;100.00
54308;BME280;40208;39.778;2.710;2023-06-26T09:17:13;101616.88;;;27.27;100.00
54308;BME280;40208;39.778;2.710;2023-06-26T09:19:58;101539.22;;;26.70;100.00
54308;BME280;40208;39.778;2.710;2023-06-26T09:22:47;101604.31;;;27.35;100.00
54308;BME280;40208;39.778;2.710;2023-06-26T09:25:31;101530.53;;;26.92;100.00
54308;BME280;40208;39.778;2.710;2023-06-26T09:28:16;101631.16;;;27.47;100.00
54308;BME280;40208;39.778;2.710;2023-06-26T09:31:05;101488.63;;;26.67;100.00
54308;BME280;40208;39.778;2.710;2023-06-26T09:33:57;101602.09;;;27.38;100.00
54308;BME280;40208;39.778;2.710;2023-06-26T09:36:42;101614.41;;;27.42;100.00
54308;BME280;40208;39.778;2.710;2023-06-26T09:39:31;101627.78;;;27.54;100.00
54308;BME280;40208;39.778;2.710;2023-06-26T09:42:17;101595.28;;;27.34;100.00
54308;BME280;40208;39.778;2.710;2023-06-26T09:45:02;101593.03;;;27.30;99.38
54308;BME280;40208;39.778;2.710;2023-06-26T09:47:47;101481.25;;;26.59;98.55
54308;BME280;40208;39.778;2.710;2023-06-26T09:50:35;101657.63;;;27.55;97.94
54308;BME280;40208;39.778;2.710;2023-06-26T09:53:20;101620.06;;;27.23;96.78
54308;BME280;40208;39.778;2.710;2023-06-26T09:56:06;101680.06;;;27.67;98.03
54308;BME280;40208;39.778;2.710;2023-06-26T09:58:51;101585.41;;;27.15;95.45
54308;BME280;40208;39.778;2.710;2023-06-26T10:01:40;101688.91;;;27.69;96.73
54308;BME280;40208;39.778;2.710;2023-06-26T10:04:26;101637.72;;;27.37;95.69
54308;BME280;40208;39.778;2.710;2023-06-26T10:07:12;101683.66;;;27.49;95.97
54308;BME280;40208;39.778;2.710;2023-06-26T10:09:58;101686.94;;;27.53;95.32
54308;BME280;40208;39.778;2.710;2023-06-26T10:12:48;101628.78;;;27.08;96.38
54308;BME280;40208;39.778;2.710;2023-06-26T10:15:34;101709.59;;;27.54;97.26
54308;BME280;40208;39.778;2.710;2023-06-26T10:18:21;101573.13;;;26.75;97.55
54308;BME280;40208;39.778;2.710;2023-06-26T10:21:10;101578.81;;;26.82;98.44
54308;BME280;40208;39.778;2.710;2023-06-26T10:23:57;101666.22;;;27.42;98.43
54308;BME280;40208;39.778;2.710;2023-06-26T10:26:44;101592.72;;;26.97;98.58
54308;BME280;40208;39.778;2.710;2023-06-26T10:29:32;101698.06;;;27.60;98.32
54308;BME280;40208;39.778;2.710;2023-06-26T10:32:20;101605.94;;;27.10;97.83
54308;BME280;40208;39.778;2.710;2023-06-26T10:35:06;101594.59;;;26.96;97.87
54308;BME280;40208;39.778;2.710;2023-06-26T10:37:51;101508.00;;;26.46;97.09
54308;BME280;40208;39.778;2.710;2023-06-26T10:40:46;101695.13;;;27.53;97.16
54308;BME280;40208;39.778;2.710;2023-06-26T10:43:32;101599.34;;;26.94;99.49
54308;BME280;40208;39.778;2.710;2023-06-26T10:46:18;101603.31;;;27.00;100.00
54308;BME280;40208;39.778;2.710;2023-06-26T10:49:04;101610.06;;;27.14;100.00
54308;BME280;40208;39.778;2.710;2023-06-26T10:51:50;101553.47;;;26.81;100.00
54308;BME280;40208;39.778;2.710;2023-06-26T10:54:37;101581.97;;;26.95;100.00
54308;BME280;40208;39.778;2.710;2023-06-26T10:57:25;101635.47;;;27.32;100.00
54308;BME280;40208;39.778;2.710;2023-06-26T11:00:11;101714.94;;;27.81;100.00
54308;BME280;40208;39.778;2.710;2023-06-26T11:02:58;101581.41;;;27.10;100.00
54308;BME280;40208;39.778;2.710;2023-06-26T11:05:45;101709.78;;;27.78;100.00
54308;BME280;40208;39.778;2.710;2023-06-26T11:08:44;101561.38;;;26.75;100.00
54308;BME280;40208;39.778;2.710;2023-06-26T11:14:36;101489.31;;;26.51;100.00
54308;BME280;40208;39.778;2.710;2023-06-26T11:17:21;101505.28;;;26.64;100.00
54308;BME280;40208;39.778;2.710;2023-06-26T11:20:10;101716.31;;;28.03;100.00
54308;BME280;40208;39.778;2.710;2023-06-26T11:22:56;101658.50;;;27.82;100.00
54308;BME280;40208;39.778;2.710;2023-06-26T11:25:41;101454.63;;;26.71;100.00
54308;BME280;40208;39.778;2.710;2023-06-26T11:28:27;101710.47;;;28.32;100.00
54308;BME280;40208;39.778;2.710;2023-06-26T11:31:26;101468.44;;;26.96;100.00
54308;BME280;40208;39.778;2.710;2023-06-26T11:34:12;101593.88;;;27.82;100.00
54308;BME280;40208;39.778;2.710;2023-06-26T11:36:57;101672.09;;;28.34;100.00
54308;BME280;40208;39.778;2.710;2023-06-26T11:39:42;101444.38;;;27.17;100.00
54308;BME280;40208;39.778;2.710;2023-06-26T11:42:27;101664.84;;;28.51;100.00
54308;BME280;40208;39.778;2.710;2023-06-26T11:45:12;101573.00;;;27.99;100.00
54308;BME280;40208;39.778;2.710;2023-06-26T11:47:57;101511.81;;;27.67;100.00
54308;BME280;40208;39.778;2.710;2023-06-26T11:50:42;101686.41;;;28.70;100.00
54308;BME280;40208;39.778;2.710;2023-06-26T11:53:27;101599.72;;;28.22;100.00
54308;BME280;40208;39.778;2.710;2023-06-26T11:56:13;101537.50;;;27.91;100.00
54308;BME280;40208;39.778;2.710;2023-06-26T11:59:06;101638.94;;;28.55;100.00
54308;BME280;40208;39.778;2.710;2023-06-26T12:01:52;101650.41;;;28.75;100.00
54308;BME280;40208;39.778;2.710;2023-06-26T12:04:40;101683.56;;;28.88;100.00
54308;BME280;40208;39.778;2.710;2023-06-26T12:07:25;101597.69;;;28.32;100.00
54308;BME280;40208;39.778;2.710;2023-06-26T12:10:11;101455.31;;;27.52;100.00
54308;BME280;40208;39.778;2.710;2023-06-26T12:12:56;101685.97;;;28.91;100.00
54308;BME280;40208;39.778;2.710;2023-06-26T12:15:43;101458.19;;;27.50;100.00
54308;BME280;40208;39.778;2.710;2023-06-26T12:18:35;101532.25;;;27.98;100.00
54308;BME280;40208;39.778;2.710;2023-06-26T12:24:26;101654.34;;;28.81;100.00
54308;BME280;40208;39.778;2.710;2023-06-26T12:27:13;101510.72;;;27.95;100.00
54308;BME280;40208;39.778;2.710;2023-06-26T12:29:58;101637.44;;;28.77;100.00
54308;BME280;40208;39.778;2.710;2023-06-26T12:32:46;101608.19;;;28.61;100.00
54308;BME280;40208;39.778;2.710;2023-06-26T12:35:33;101472.28;;;27.72;100.00
54308;BME280;40208;39.778;2.710;2023-06-26T12:38:18;101584.81;;;28.59;100.00
54308;BME280;40208;39.778;2.710;2023-06-26T12:41:04;101552.47;;;28.38;100.00
54308;BME280;40208;39.778;2.710;2023-06-26T12:43:55;101514.41;;;28.20;100.00
54308;BME280;40208;39.778;2.710;2023-06-26T12:46:40;101514.91;;;28.23;100.00
54308;BME280;40208;39.778;2.710;2023-06-26T12:49:38;101620.88;;;28.87;100.00
54308;BME280;40208;39.778;2.710;2023-06-26T12:52:24;101603.28;;;28.81;100.00
54308;BME280;40208;39.778;2.710;2023-06-26T12:55:09;101576.09;;;28.63;100.00
54308;BME280;40208;39.778;2.710;2023-06-26T12:57:53;101527.56;;;28.32;100.00
54308;BME280;40208;39.778;2.710;2023-06-26T13:00:38;101608.25;;;28.86;100.00
54308;BME280;40208;39.778;2.710;2023-06-26T13:03:25;101628.75;;;28.98;100.00
54308;BME280;40208;39.778;2.710;2023-06-26T13:06:10;101441.47;;;27.87;100.00
54308;BME280;40208;39.778;2.710;2023-06-26T13:08:57;101524.19;;;28.47;100.00
54308;BME280;40208;39.778;2.710;2023-06-26T13:11:42;101588.63;;;28.90;100.00
54308;BME280;40208;39.778;2.710;2023-06-26T13:14:27;101445.28;;;28.03;100.00
54308;BME280;40208;39.778;2.710;2023-06-26T13:17:12;101585.34;;;28.87;100.00
54308;BME280;40208;39.778;2.710;2023-06-26T13:19:57;101514.81;;;28.49;100.00
54308;BME280;40208;39.778;2.710;2023-06-26T13:22:42;101469.88;;;28.36;100.00
54308;BME280;40208;39.778;2.710;2023-06-26T13:25:27;101557.34;;;28.85;100.00
54308;BME280;40208;39.778;2.710;2023-06-26T13:28:12;101519.44;;;28.65;100.00
54308;BME280;40208;39.778;2.710;2023-06-26T13:30:56;101468.00;;;28.44;100.00
54308;BME280;40208;39.778;2.710;2023-06-26T13:33:41;101553.75;;;28.84;100.00
54308;BME280;40208;39.778;2.710;2023-06-26T13:36:26;101546.06;;;28.96;100.00
54308;BME280;40208;39.778;2.710;2023-06-26T13:39:11;101553.94;;;28.99;100.00
54308;BME280;40208;39.778;2.710;2023-06-26T13:41:56;101607.75;;;29.39;100.00
54308;BME280;40208;39.778;2.710;2023-06-26T13:44:41;101570.69;;;29.12;100.00
54308;BME280;40208;39.778;2.710;2023-06-26T13:47:26;101545.06;;;29.05;100.00
54308;BME280;40208;39.778;2.710;2023-06-26T13:50:11;101606.03;;;29.47;100.00
54308;BME280;40208;39.778;2.710;2023-06-26T13:52:55;101601.75;;;29.44;100.00
54308;BME280;40208;39.778;2.710;2023-06-26T13:55:40;101572.75;;;29.27;98.56
54308;BME280;40208;39.778;2.710;2023-06-26T13:58:25;101613.34;;;29.63;98.32
54308;BME280;40208;39.778;2.710;2023-06-26T14:01:11;101559.56;;;29.30;95.96
54308;BME280;40208;39.778;2.710;2023-06-26T14:03:57;101623.09;;;29.65;97.23
54308;BME280;40208;39.778;2.710;2023-06-26T14:06:42;101569.28;;;29.41;97.16
54308;BME280;40208;39.778;2.710;2023-06-26T14:09:26;101580.19;;;29.49;95.78
54308;BME280;40208;39.778;2.710;2023-06-26T14:12:11;101444.66;;;28.66;94.89
54308;BME280;40208;39.778;2.710;2023-06-26T14:14:56;101524.56;;;29.17;94.24
54308;BME280;40208;39.778;2.710;2023-06-26T14:17:41;101491.78;;;28.93;94.25
54308;BME280;40208;39.778;2.710;2023-06-26T14:20:25;101427.25;;;28.59;91.52
54308;BME280;40208;39.778;2.710;2023-06-26T14:23:12;101413.41;;;28.44;92.01
54308;BME280;40208;39.778;2.710;2023-06-26T14:25:57;101585.34;;;29.52;92.47